Time;durP1;ratioP1;P1;durP2;ratioP2;P2;SDS_P1;SDS_P2;PMS_P1;PMS_P2;Temp;Humidity;BMP_temperature;BMP_pressure;BME280_temperature;BME280_humidity;BME280_pressure;Samples;Min_cycle;Max_cycle;Signal;HPM_P1;HPM_P2
2022/03/19 00:00:46;;;;;;;14.65;7.80;;;;;;;6.83;68.60;104302.75;5022351;28;20030;-58
2022/03/19 00:03:12;;;;;;;16.73;8.25;;;;;;;6.79;68.54;104295.69;5036671;28;20048;-58
2022/03/19 00:05:38;;;;;;;12.93;8.25;;;;;;;6.79;68.61;104306.25;5051590;28;20104;-58
2022/03/19 00:08:03;;;;;;;16.48;8.32;;;;;;;6.78;69.19;104308.94;5028233;28;20440;-59
2022/03/19 00:10:29;;;;;;;14.05;8.55;;;;;;;6.75;68.85;104306.31;5033217;28;20532;-58
2022/03/19 00:12:54;;;;;;;14.20;7.90;;;;;;;6.73;68.51;104305.41;5035305;28;20029;-58
2022/03/19 00:15:19;;;;;;;14.05;8.30;;;;;;;6.71;68.81;104296.63;5036444;28;20029;-58
2022/03/19 00:17:46;;;;;;;17.85;8.25;;;;;;;6.67;69.27;104301.06;5035818;28;20063;-60
2022/03/19 00:20:12;;;;;;;15.30;8.45;;;;;;;6.66;69.25;104299.28;5036083;28;20021;-58
2022/03/19 00:22:38;;;;;;;13.27;8.15;;;;;;;6.63;69.42;104294.03;5034353;28;20029;-57
2022/03/19 00:25:04;;;;;;;15.35;8.88;;;;;;;6.61;69.63;104301.06;5025979;28;20037;-58
2022/03/19 00:27:29;;;;;;;17.25;8.38;;;;;;;6.58;70.02;104304.63;5036385;28;20412;-58
2022/03/19 00:29:55;;;;;;;12.98;8.13;;;;;;;6.56;69.79;104297.56;5027530;28;20043;-59
2022/03/19 00:32:20;;;;;;;13.23;8.00;;;;;;;6.53;69.83;104301.13;5033971;28;20051;-58
2022/03/19 00:34:45;;;;;;;15.90;8.70;;;;;;;6.51;70.06;104297.59;5035581;28;20036;-58
2022/03/19 00:37:11;;;;;;;12.60;8.85;;;;;;;6.48;70.10;104295.84;5034749;28;20025;-58
2022/03/19 00:39:36;;;;;;;19.40;8.98;;;;;;;6.47;70.24;104295.84;5034588;28;20028;-58
2022/03/19 00:42:01;;;;;;;16.88;8.60;;;;;;;6.45;70.31;104284.44;5033010;28;20446;-58
2022/03/19 00:44:27;;;;;;;13.98;8.02;;;;;;;6.41;69.92;104286.22;5032950;28;20113;-58
2022/03/19 00:46:52;;;;;;;15.30;8.75;;;;;;;6.39;70.21;104295.88;5020789;28;20500;-58
2022/03/19 00:49:17;;;;;;;14.55;9.07;;;;;;;6.40;70.43;104289.72;5031530;28;20041;-58
2022/03/19 00:51:43;;;;;;;13.40;9.05;;;;;;;6.37;70.86;104288.84;5021894;28;20040;-58
2022/03/19 00:54:10;;;;;;;15.65;9.15;;;;;;;6.35;70.78;104288.00;5033203;28;20476;-59
2022/03/19 00:56:36;;;;;;;14.20;8.65;;;;;;;6.32;70.75;104286.22;5031577;28;20064;-59
2022/03/19 00:59:02;;;;;;;16.80;8.45;;;;;;;6.30;70.23;104291.50;5032800;28;20037;-59
2022/03/19 01:01:28;;;;;;;14.98;8.70;;;;;;;6.29;70.80;104283.59;5031339;28;20049;-59
2022/03/19 01:03:54;;;;;;;15.07;8.88;;;;;;;6.24;71.02;104288.00;5032585;28;20033;-59
2022/03/19 01:06:19;;;;;;;17.42;9.23;;;;;;;6.23;71.27;104281.00;5028920;28;20116;-59
2022/03/19 01:08:45;;;;;;;17.00;9.45;;;;;;;6.21;71.20;104282.72;5030375;28;20343;-59
2022/03/19 01:11:10;;;;;;;18.10;9.65;;;;;;;6.18;71.77;104275.72;5032426;28;20533;-59
2022/03/19 01:13:35;;;;;;;13.65;9.35;;;;;;;6.16;71.17;104281.88;5032421;28;20053;-59
2022/03/19 01:16:02;;;;;;;13.45;9.50;;;;;;;6.14;71.37;104275.72;5031143;28;20037;-58
2022/03/19 01:18:28;;;;;;;13.65;9.57;;;;;;;6.11;71.71;104284.50;5030984;28;20030;-60
2022/03/19 01:20:53;;;;;;;14.25;9.65;;;;;;;6.09;72.07;104281.88;5024133;28;20365;-58
2022/03/19 01:23:18;;;;;;;14.05;9.07;;;;;;;6.08;71.97;104276.63;5032331;28;20387;-59
2022/03/19 01:25:43;;;;;;;14.85;9.55;;;;;;;6.05;71.96;104274.84;5030790;28;20040;-59
2022/03/19 01:28:09;;;;;;;17.05;9.50;;;;;;;6.03;72.27;104276.63;5031851;28;20053;-59
2022/03/19 01:30:34;;;;;;;16.08;9.85;;;;;;;6.02;72.08;104277.50;5032087;28;20044;-59
2022/03/19 01:32:59;;;;;;;22.63;10.57;;;;;;;5.98;72.33;104270.50;5027806;28;20385;-59
2022/03/19 01:35:24;;;;;;;12.60;9.73;;;;;;;5.97;72.15;104271.38;5030591;28;20402;-58
2022/03/19 01:37:50;;;;;;;17.98;11.15;;;;;;;5.95;72.64;104272.22;5030477;28;20487;-59
2022/03/19 01:40:17;;;;;;;18.23;10.75;;;;;;;5.93;72.64;104266.94;5023850;28;20038;-59
2022/03/19 01:42:45;;;;;;;16.73;10.10;;;;;;;5.89;72.39;104259.91;5029788;28;20025;-58
2022/03/19 01:45:14;;;;;;;20.48;10.88;;;;;;;5.88;72.91;104259.03;5031813;28;20030;-59
2022/03/19 01:47:39;;;;;;;14.75;11.32;;;;;;;5.87;72.84;104266.97;5027863;28;20032;-59
2022/03/19 01:50:06;;;;;;;18.02;10.98;;;;;;;5.84;72.34;104253.75;5031564;28;20021;-58
2022/03/19 01:52:31;;;;;;;19.92;11.35;;;;;;;5.82;72.86;104260.81;5031463;28;20484;-59
2022/03/19 01:54:59;;;;;;;18.10;11.27;;;;;;;5.79;73.49;104258.16;5029973;28;20047;-58
2022/03/19 01:57:26;;;;;;;22.25;11.77;;;;;;;5.77;73.08;104257.31;5031543;28;20111;-59
2022/03/19 01:59:53;;;;;;;21.15;12.02;;;;;;;5.76;73.82;104261.69;5031426;28;20021;-59
2022/03/19 02:02:19;;;;;;;19.13;11.95;;;;;;;5.74;73.72;104256.44;5024218;28;20072;-59
2022/03/19 02:04:45;;;;;;;19.98;12.38;;;;;;;5.74;73.91;104250.25;5024872;28;20029;-59
2022/03/19 02:07:11;;;;;;;18.48;12.65;;;;;;;5.71;74.18;104243.25;5031266;28;20028;-59
2022/03/19 02:09:38;;;;;;;17.92;13.13;;;;;;;5.69;74.36;104244.13;5023384;28;20036;-59
2022/03/19 02:12:04;;;;;;;20.23;13.02;;;;;;;5.68;73.92;104247.63;5028832;28;20072;-58
2022/03/19 02:14:34;;;;;;;20.67;13.18;;;;;;;5.61;74.49;104228.28;5028838;28;20053;-58
2022/03/19 02:17:01;;;;;;;19.88;13.82;;;;;;;5.66;74.61;104238.84;5031031;28;20027;-58
2022/03/19 02:19:26;;;;;;;22.65;13.50;;;;;;;5.64;74.97;104233.56;5031267;28;20405;-59
2022/03/19 02:21:52;;;;;;;18.75;13.98;;;;;;;5.64;74.78;104236.19;5030981;28;20104;-59
2022/03/19 02:27:02;;;;;;;24.15;14.68;;;;;;;5.59;75.15;104230.06;5019496;28;20412;-61
2022/03/19 02:29:29;;;;;;;18.63;14.00;;;;;;;5.57;75.33;104226.53;5030608;28;20046;-59
2022/03/19 02:31:59;;;;;;;21.08;14.65;;;;;;;5.57;75.63;104223.91;5029067;28;20043;-59
2022/03/19 02:34:26;;;;;;;21.70;13.90;;;;;;;5.55;75.19;104221.28;5030474;28;20112;-59
2022/03/19 02:36:51;;;;;;;20.75;14.20;;;;;;;5.54;75.65;104214.22;5027789;28;20030;-58
2022/03/19 02:39:19;;;;;;;20.40;14.57;;;;;;;5.50;76.15;104204.59;5028224;28;20032;-59
2022/03/19 02:41:49;;;;;;;20.23;15.52;;;;;;;5.50;76.29;104204.59;5029570;28;20025;-59
2022/03/19 02:44:16;;;;;;;25.52;14.60;;;;;;;5.48;75.59;104203.72;5030337;28;20030;-58
2022/03/19 02:46:42;;;;;;;24.17;15.50;;;;;;;5.50;76.63;104209.00;5028749;28;20060;-59
2022/03/19 02:49:08;;;;;;;24.20;14.70;;;;;;;5.47;76.68;104209.00;5030532;28;20033;-58
2022/03/19 02:51:38;;;;;;;22.05;15.38;;;;;;;5.46;76.83;104205.47;5025582;28;20033;-59
2022/03/19 02:54:05;;;;;;;23.67;14.38;;;;;;;5.45;76.62;104197.56;5030487;28;20124;-60
2022/03/19 02:56:35;;;;;;;23.33;15.43;;;;;;;5.43;76.96;104199.31;5023622;28;20017;-59
2022/03/19 02:59:09;;;;;;;21.00;14.85;;;;;;;5.42;76.84;104198.44;5030194;28;20072;-59
2022/03/19 03:01:35;;;;;;;20.00;13.95;;;;;;;5.40;76.87;104197.56;5018594;28;20152;-59
2022/03/19 03:04:01;;;;;;;23.33;15.02;;;;;;;5.41;77.51;104198.44;5029664;28;20056;-59
2022/03/19 03:06:26;;;;;;;21.80;15.15;;;;;;;5.39;77.45;104203.72;5022409;28;20029;-59
2022/03/19 03:08:51;;;;;;;20.38;14.82;;;;;;;5.37;77.79;104208.13;5029840;28;20025;-59
2022/03/19 03:11:17;;;;;;;22.13;14.88;;;;;;;5.35;77.39;104201.97;5019607;28;20034;-59
2022/03/19 03:13:43;;;;;;;22.08;14.63;;;;;;;5.34;77.58;104208.09;5030066;28;20498;-58
2022/03/19 03:16:08;;;;;;;20.02;14.25;;;;;;;5.34;78.17;104205.47;5017412;28;20083;-59
2022/03/19 03:18:34;;;;;;;24.85;16.10;;;;;;;5.33;78.45;104203.75;5030238;28;20033;-58
2022/03/19 03:20:59;;;;;;;18.92;14.82;;;;;;;5.33;78.25;104203.75;5029139;28;20021;-59
2022/03/19 03:23:26;;;;;;;23.17;15.40;;;;;;;5.31;78.11;104209.00;5021204;28;20179;-59
2022/03/19 03:25:52;;;;;;;19.77;14.45;;;;;;;5.23;78.46;104196.69;5128316;22;20136;-91
2022/03/19 03:28:18;;;;;;;24.08;14.38;;;;;;;5.24;78.84;104203.72;5039453;28;20037;-90
2022/03/19 03:30:43;;;;;;;21.42;15.27;;;;;;;5.23;78.38;104201.94;5039004;28;20036;-90
2022/03/19 03:33:11;;;;;;;21.58;14.60;;;;;;;5.24;78.77;104201.09;5040614;28;20112;-91
2022/03/19 03:35:39;;;;;;;24.73;15.45;;;;;;;5.19;78.98;104201.94;5040874;28;20013;-90
2022/03/19 03:38:07;;;;;;;21.70;14.38;;;;;;;5.19;78.52;104207.22;5042513;28;20068;-90
2022/03/19 03:40:42;;;;;;;20.73;14.45;;;;;;;5.13;79.36;104196.69;5054901;28;20029;-89
2022/03/19 03:43:08;;;;;;;23.67;16.27;;;;;;;5.15;79.32;104200.22;5040662;28;20033;-90
2022/03/19 03:45:37;;;;;;;24.42;14.90;;;;;;;5.16;79.50;104207.25;5044928;28;20123;-91
2022/03/19 03:48:04;;;;;;;26.55;14.68;;;;;;;5.17;79.20;104206.34;5033934;28;20083;-90
2022/03/19 03:50:29;;;;;;;26.42;15.70;;;;;;;5.11;79.66;104197.56;5036260;28;20443;-89
2022/03/19 03:52:56;;;;;;;24.38;15.15;;;;;;;5.03;79.50;104192.31;5036242;28;20034;-90
2022/03/19 03:55:21;;;;;;;24.00;14.32;;;;;;;5.06;79.88;104196.69;5040763;28;20437;-90
2022/03/19 03:57:47;;;;;;;24.65;15.10;;;;;;;5.05;79.80;104195.81;5040278;28;20022;-91
2022/03/19 04:00:13;;;;;;;21.90;14.27;;;;;;;5.07;80.03;104201.09;5038636;28;20029;-91
2022/03/19 04:02:39;;;;;;;21.38;15.13;;;;;;;4.99;80.26;104183.50;5042443;28;20041;-90
2022/03/19 04:05:08;;;;;;;25.88;14.48;;;;;;;4.98;80.55;104188.78;5050509;28;20013;-90
2022/03/19 04:07:33;;;;;;;27.30;14.80;;;;;;;4.94;80.17;104187.88;5022253;28;20113;-91
2022/03/19 04:09:59;;;;;;;26.10;14.20;;;;;;;4.97;80.46;104187.03;5037029;28;20323;-91
2022/03/19 04:12:24;;;;;;;21.13;14.77;;;;;;;4.95;80.39;104192.28;5037747;28;20021;-91
2022/03/19 04:14:51;;;;;;;19.40;14.25;;;;;;;4.96;80.68;104190.53;5036913;28;20018;-91
2022/03/19 04:17:18;;;;;;;22.50;14.02;;;;;;;4.89;79.94;104179.09;5039828;28;20029;-92
2022/03/19 04:19:43;;;;;;;24.45;14.75;;;;;;;4.87;80.65;104177.38;5038540;28;20029;-91
2022/03/19 04:22:11;;;;;;;30.20;14.55;;;;;;;4.91;80.40;104189.66;5041175;28;20109;-91
2022/03/19 04:24:39;;;;;;;22.90;15.15;;;;;;;4.80;80.88;104176.47;5038875;28;20025;-92
2022/03/19 04:27:04;;;;;;;23.73;13.85;;;;;;;4.89;80.77;104189.63;5038947;28;20046;-92
2022/03/19 04:29:32;;;;;;;23.85;14.15;;;;;;;4.83;80.60;104184.38;5038657;28;20028;-92
2022/03/19 04:32:00;;;;;;;21.42;14.45;;;;;;;4.81;80.90;104186.13;5040548;28;20032;-92
2022/03/19 04:34:25;;;;;;;28.15;15.02;;;;;;;4.77;81.20;104174.69;5038997;28;20025;-91
2022/03/19 04:36:51;;;;;;;27.98;14.45;;;;;;;4.80;80.99;104181.75;5039389;28;20032;-91
2022/03/19 04:39:19;;;;;;;25.80;14.50;;;;;;;4.77;81.14;104173.84;5039442;28;20037;-92
2022/03/19 04:41:44;;;;;;;25.80;14.88;;;;;;;4.73;81.57;104169.41;5039181;28;20030;-91
2022/03/19 04:44:10;;;;;;;28.15;14.82;;;;;;;4.68;81.38;104158.91;5040032;28;20159;-92
2022/03/19 04:46:36;;;;;;;23.40;14.10;;;;;;;4.71;81.27;104161.53;5037523;28;20025;-90
2022/03/19 04:49:05;;;;;;;20.45;14.00;;;;;;;4.68;81.10;104163.28;5038524;28;20029;-89
2022/03/19 04:51:38;;;;;;;21.15;12.88;;;;;;;4.73;81.33;104172.97;5037923;28;20036;-91
2022/03/19 04:54:04;;;;;;;23.13;14.32;;;;;;;4.66;81.57;104163.28;5036972;28;20025;-90
2022/03/19 04:56:30;;;;;;;24.45;14.85;;;;;;;4.60;81.54;104158.00;5038660;28;20117;-91
2022/03/19 04:58:58;;;;;;;24.35;14.07;;;;;;;4.60;81.61;104158.00;5038975;28;20022;-91
2022/03/19 05:01:34;;;;;;;22.95;13.98;;;;;;;4.66;81.62;104173.81;5039107;28;20021;-89
2022/03/19 05:03:59;;;;;;;21.70;14.13;;;;;;;4.60;81.72;104160.66;5040313;28;20030;-90
2022/03/19 05:06:25;;;;;;;22.10;14.35;;;;;;;4.55;81.83;104155.38;5041292;28;20064;-93
2022/03/19 05:11:12;;;;;;;22.35;13.85;;;;;;;4.56;81.82;104166.75;5053017;28;20043;-90
2022/03/19 05:11:37;;;;;;;25.83;14.23;;;;;;;4.52;81.82;104159.75;5058398;28;20017;-91
2022/03/19 05:14:06;;;;;;;22.05;13.90;;;;;;;4.50;81.80;104162.38;5054088;28;20064;-91
2022/03/19 05:16:32;;;;;;;22.60;14.02;;;;;;;4.52;81.89;104165.00;5051994;28;20026;-91
2022/03/19 05:18:58;;;;;;;22.40;14.40;;;;;;;4.45;82.06;104165.00;5052256;28;20037;-90
2022/03/19 05:21:27;;;;;;;20.67;14.25;;;;;;;4.50;81.86;104175.53;5050992;28;20036;-90
2022/03/19 05:23:53;;;;;;;21.15;14.40;;;;;;;4.40;82.17;104158.84;5046168;28;20083;-89
2022/03/19 05:26:18;;;;;;;22.92;14.55;;;;;;;4.47;82.25;104175.53;5048159;28;20053;-91
2022/03/19 05:28:43;;;;;;;22.92;13.73;;;;;;;4.43;82.20;104169.38;5049043;28;20112;-91
2022/03/19 05:31:09;;;;;;;21.90;13.35;;;;;;;4.44;82.08;104181.66;5044432;28;20099;-92
2022/03/19 05:36:20;;;;;;;24.20;14.00;;;;;;;4.38;82.43;104176.38;5046634;28;20499;-91
2022/03/19 05:38:45;;;;;;;22.15;14.05;;;;;;;4.39;82.31;104191.28;5044116;28;20026;-91
2022/03/19 05:41:14;;;;;;;24.38;15.38;;;;;;;4.41;82.98;104180.75;5044886;28;20029;-91
2022/03/19 05:43:39;;;;;;;21.10;14.57;;;;;;;4.39;83.11;104175.50;5040153;28;20034;-91
2022/03/19 05:46:04;;;;;;;25.15;15.02;;;;;;;4.32;83.23;104172.84;5039025;28;20534;-91
2022/03/19 05:48:30;;;;;;;25.40;13.88;;;;;;;4.31;82.71;104171.09;5038794;28;20029;-91
2022/03/19 05:50:55;;;;;;;25.13;15.15;;;;;;;4.33;82.90;104170.22;5038552;28;20104;-91
2022/03/19 05:53:21;;;;;;;23.58;14.65;;;;;;;4.26;83.25;104163.16;5041010;28;20048;-91
2022/03/19 05:55:47;;;;;;;27.40;15.00;;;;;;;4.35;83.15;104175.50;5040876;28;20021;-91
2022/03/19 05:58:15;;;;;;;23.75;15.20;;;;;;;4.32;83.13;104181.63;5038806;28;20372;-92
2022/03/19 06:00:43;;;;;;;23.27;14.23;;;;;;;4.29;82.71;104178.09;5037458;28;20051;-89
2022/03/19 06:03:08;;;;;;;20.63;13.95;;;;;;;4.34;83.25;104184.25;5039071;28;20021;-89
2022/03/19 06:05:34;;;;;;;20.35;14.18;;;;;;;4.33;83.18;104183.38;5036376;28;20167;-88
2022/03/19 06:08:04;;;;;;;21.88;15.02;;;;;;;4.30;83.22;104178.09;5037023;28;20057;-89
2022/03/19 06:10:36;;;;;;;25.55;15.85;;;;;;;4.29;83.37;104178.09;5036204;28;20431;-89
2022/03/19 06:13:03;;;;;;;28.85;14.80;;;;;;;4.34;83.13;104186.88;5036705;28;20033;-90
2022/03/19 06:15:28;;;;;;;21.20;14.77;;;;;;;4.34;83.57;104187.75;5035780;28;20425;-90
2022/03/19 06:17:54;;;;;;;24.70;15.48;;;;;;;4.38;83.37;104199.16;5036625;28;20056;-90
2022/03/19 06:20:22;;;;;;;23.42;14.40;;;;;;;4.33;83.40;104186.03;5042488;28;20022;-91
2022/03/19 06:22:48;;;;;;;25.38;15.05;;;;;;;4.37;83.53;104187.78;5049714;28;20030;-90
2022/03/19 06:25:16;;;;;;;26.40;15.40;;;;;;;4.41;83.67;104191.28;5048373;28;20029;-90
2022/03/19 06:27:42;;;;;;;21.50;14.60;;;;;;;4.38;83.62;104170.22;5041323;28;20106;-90
2022/03/19 06:30:08;;;;;;;23.83;15.57;;;;;;;4.42;83.52;104182.53;5038705;28;20022;-89
2022/03/19 06:32:36;;;;;;;23.40;14.95;;;;;;;4.50;83.73;104193.97;5045183;28;20014;-90
2022/03/19 06:35:02;;;;;;;22.13;15.35;;;;;;;4.52;83.64;104189.56;5056221;28;20037;-90
2022/03/19 06:37:28;;;;;;;29.27;14.70;;;;;;;4.58;83.70;104186.06;5039905;28;20395;-91
2022/03/19 06:39:56;;;;;;;28.55;15.57;;;;;;;4.61;83.71;104199.25;5045506;28;20101;-90
2022/03/19 06:42:22;;;;;;;24.38;14.75;;;;;;;4.60;83.58;104189.59;5037469;28;20037;-90
2022/03/19 06:44:48;;;;;;;26.95;15.07;;;;;;;4.66;83.74;104186.97;5039558;28;20080;-90
2022/03/19 06:47:13;;;;;;;22.83;14.00;;;;;;;4.64;83.73;104192.22;5038453;28;20621;-90
2022/03/19 06:49:41;;;;;;;24.48;13.88;;;;;;;4.75;83.61;104199.28;5039074;28;20108;-89
2022/03/19 06:52:10;;;;;;;24.35;14.75;;;;;;;4.78;83.49;104197.53;5056504;28;20607;-90
2022/03/19 06:54:35;;;;;;;26.33;15.18;;;;;;;4.83;83.58;104197.56;5041024;28;20033;-90
2022/03/19 06:57:01;;;;;;;23.02;15.45;;;;;;;4.78;83.04;104189.63;5043405;28;20079;-88
2022/03/19 06:59:27;;;;;;;22.65;14.50;;;;;;;4.89;83.12;104192.28;5038014;28;20021;-88
2022/03/19 07:01:52;;;;;;;21.85;14.82;;;;;;;4.93;83.31;104196.69;5016899;28;20068;-89
2022/03/19 07:04:18;;;;;;;25.95;14.60;;;;;;;4.97;83.13;104190.53;5031848;28;20036;-91
2022/03/19 07:06:43;;;;;;;24.58;14.68;;;;;;;4.95;82.93;104179.13;5033568;28;20060;-90
2022/03/19 07:09:11;;;;;;;24.90;14.70;;;;;;;5.02;82.79;104185.28;5044428;28;20037;-90
2022/03/19 07:11:36;;;;;;;21.88;14.35;;;;;;;5.11;82.93;104197.56;5021527;28;20038;-88
2022/03/19 07:14:03;;;;;;;24.65;14.82;;;;;;;5.15;82.69;104189.66;5022444;28;20037;-87
2022/03/19 07:16:29;;;;;;;26.08;13.85;;;;;;;5.12;82.68;104184.38;5018602;28;20026;-87
2022/03/19 07:18:55;;;;;;;25.77;13.93;;;;;;;5.18;82.57;104175.63;5020926;28;20076;-88
2022/03/19 07:21:21;;;;;;;23.42;14.68;;;;;;;5.29;82.34;104194.94;5030424;28;20021;-87
2022/03/19 07:23:46;;;;;;;24.80;13.82;;;;;;;5.37;82.27;104187.88;5034492;28;20025;-87
2022/03/19 07:26:12;;;;;;;25.75;14.40;;;;;;;5.43;81.88;104194.03;5030071;28;20059;-88
2022/03/19 07:28:37;;;;;;;23.45;14.15;;;;;;;5.44;81.77;104182.63;5022948;28;20061;-88
2022/03/19 07:31:03;;;;;;;24.25;13.07;;;;;;;5.49;81.93;104179.09;5030554;28;20345;-88
2022/03/19 07:33:33;;;;;;;22.10;13.45;;;;;;;5.58;82.00;104178.22;5032330;28;20095;-88
2022/03/19 07:36:02;;;;;;;22.80;13.90;;;;;;;5.66;81.49;104168.53;5030155;28;20042;-88
2022/03/19 07:38:31;;;;;;;21.90;13.20;;;;;;;5.76;81.08;104174.63;5024649;28;20048;-89
2022/03/19 07:43:43;;;;;;;24.05;13.10;;;;;;;6.07;80.23;104177.22;5039196;28;20044;-90
2022/03/19 07:46:10;;;;;;;23.10;13.32;;;;;;;6.17;79.76;104173.66;5034714;28;20071;-91
2022/03/19 07:48:36;;;;;;;21.83;12.48;;;;;;;6.37;79.58;104175.31;5034275;28;20055;-88
2022/03/19 07:51:01;;;;;;;22.55;12.30;;;;;;;6.52;78.41;104171.72;5022159;28;20041;-90
2022/03/19 07:53:29;;;;;;;19.98;11.40;;;;;;;6.70;77.74;104183.94;5028628;28;20528;-91
2022/03/19 07:55:57;;;;;;;22.40;11.57;;;;;;;6.79;76.89;104160.94;5041144;28;20073;-90
2022/03/19 07:58:23;;;;;;;20.48;11.80;;;;;;;6.99;75.88;104165.22;5041283;28;20056;-92
2022/03/19 08:00:48;;;;;;;19.65;10.82;;;;;;;7.19;75.24;104168.59;5029796;28;20034;-90
2022/03/19 08:03:14;;;;;;;18.83;10.73;;;;;;;7.29;74.54;104166.72;5022881;28;20076;-91
2022/03/19 08:05:43;;;;;;;18.33;10.90;;;;;;;7.46;74.21;104169.22;5024880;28;20373;-91
2022/03/19 08:08:09;;;;;;;16.95;10.30;;;;;;;7.67;73.52;104176.03;5027518;28;20033;-91
2022/03/19 08:10:38;;;;;;;17.77;10.90;;;;;;;7.82;72.75;104168.81;5041732;28;20440;-91
2022/03/19 08:13:09;;;;;;;24.10;10.00;;;;;;;8.01;72.43;104167.72;5045991;28;20052;-89
2022/03/19 08:15:37;;;;;;;18.35;9.90;;;;;;;8.21;71.41;104163.91;5046990;28;20045;-91
2022/03/19 08:18:06;;;;;;;19.33;10.10;;;;;;;8.35;70.38;104156.69;5044849;28;20025;-92
2022/03/19 08:20:34;;;;;;;18.15;9.65;;;;;;;8.51;69.83;104150.28;5040605;28;20502;-91
2022/03/19 08:23:00;;;;;;;14.13;9.18;;;;;;;8.76;68.91;104170.22;5041242;28;20029;-90
2022/03/19 08:25:26;;;;;;;16.80;9.40;;;;;;;8.86;68.58;104151.53;5040323;28;20060;-91
2022/03/19 08:27:51;;;;;;;13.13;8.35;;;;;;;9.12;67.02;104163.47;5041286;28;20080;-89
2022/03/19 08:30:18;;;;;;;18.73;9.32;;;;;;;9.23;65.89;104157.97;5055238;28;20037;-90
2022/03/19 08:32:43;;;;;;;13.43;8.00;;;;;;;9.42;65.33;104159.38;5054492;28;20021;-92
2022/03/19 08:35:09;;;;;;;15.95;8.13;;;;;;;9.57;64.68;104150.25;5049467;28;20048;-90
2022/03/19 08:37:36;;;;;;;17.83;8.27;;;;;;;9.79;64.04;104164.00;5053472;28;20077;-91
2022/03/19 08:40:19;;;;;;;16.08;7.60;;;;;;;9.97;64.34;104156.53;5053949;28;20052;-91
2022/03/19 08:42:54;;;;;;;14.98;7.80;;;;;;;10.13;62.83;104152.66;5059411;28;20009;-92
2022/03/19 08:45:38;;;;;;;15.63;8.30;;;;;;;10.36;63.06;104161.94;5058877;28;20033;-90
2022/03/19 08:48:04;;;;;;;13.82;7.60;;;;;;;10.40;61.02;104147.66;5060017;28;20077;-91
2022/03/19 08:50:29;;;;;;;11.68;7.82;;;;;;;10.51;60.59;104148.31;5057358;28;20037;-88
2022/03/19 08:52:55;;;;;;;15.38;7.82;;;;;;;10.78;60.42;104153.88;5052955;28;20060;-89
2022/03/19 08:55:22;;;;;;;12.43;7.38;;;;;;;10.84;59.32;104153.72;5047896;28;20056;-87
2022/03/19 08:57:48;;;;;;;14.13;8.00;;;;;;;10.99;59.26;104135.63;5037735;28;20042;-89
2022/03/19 09:00:14;;;;;;;14.82;7.43;;;;;;;11.14;58.87;104137.00;5037203;28;20065;-89
2022/03/19 09:02:45;;;;;;;15.15;7.28;;;;;;;11.33;57.98;104140.94;5037769;28;20034;-90
2022/03/19 09:05:11;;;;;;;13.63;7.43;;;;;;;11.34;56.74;104132.06;5042633;28;20045;-89
2022/03/19 09:07:37;;;;;;;13.65;7.05;;;;;;;11.53;56.93;104152.84;5044073;28;20030;-88
2022/03/19 09:10:03;;;;;;;14.10;7.22;;;;;;;11.52;56.46;104138.63;5039991;28;20078;-87
2022/03/19 09:12:28;;;;;;;14.48;7.30;;;;;;;11.66;56.38;104148.91;5034015;28;20468;-90
2022/03/19 09:14:54;;;;;;;15.57;7.22;;;;;;;11.71;55.87;104131.00;5036400;28;20050;-89
2022/03/19 09:17:19;;;;;;;12.90;7.40;;;;;;;11.96;56.53;104130.34;5035286;28;20030;-88
2022/03/19 09:19:45;;;;;;;13.52;6.68;;;;;;;12.12;54.88;104136.06;5034938;28;20060;-88
2022/03/19 09:22:10;;;;;;;13.73;6.97;;;;;;;12.28;55.28;104132.00;5016602;28;20042;-87
2022/03/19 09:24:36;;;;;;;14.95;7.20;;;;;;;12.47;55.61;104129.59;5033179;28;20025;-85
2022/03/19 09:27:03;;;;;;;14.57;6.95;;;;;;;12.62;53.61;104133.56;5027247;28;20057;-85
2022/03/19 09:29:28;;;;;;;15.48;6.95;;;;;;;12.80;54.27;104133.91;5045234;28;20018;-86
2022/03/19 09:31:54;;;;;;;18.75;7.63;;;;;;;12.92;52.61;104126.38;5040391;28;20184;-87
2022/03/19 09:34:19;;;;;;;12.07;6.60;;;;;;;13.06;52.75;104125.88;5037386;28;20060;-86
2022/03/19 09:36:47;;;;;;;15.48;7.28;;;;;;;13.10;51.63;104119.50;5026706;28;20046;-87
2022/03/19 09:39:16;;;;;;;13.52;6.53;;;;;;;13.08;50.68;104128.50;5032489;28;20034;-86
2022/03/19 09:41:42;;;;;;;12.32;6.70;;;;;;;13.00;51.29;104109.22;5032256;28;20041;-86
2022/03/19 09:44:17;;;;;;;11.43;5.55;;;;;;;13.13;51.95;104123.88;5033722;28;20032;-86
2022/03/19 09:46:45;;;;;;;13.27;6.40;;;;;;;13.16;50.45;104122.91;5034418;28;20033;-87
2022/03/19 09:49:10;;;;;;;12.03;5.80;;;;;;;13.27;50.74;104118.03;5034217;28;20056;-85
2022/03/19 09:51:40;;;;;;;12.25;5.93;;;;;;;13.30;49.86;104105.44;5034360;28;20116;-87
2022/03/19 09:54:06;;;;;;;13.13;5.43;;;;;;;13.29;49.51;104114.41;5033856;28;20029;-87
2022/03/19 09:56:32;;;;;;;14.13;5.72;;;;;;;13.37;49.04;104105.25;5033762;28;20123;-87
2022/03/19 09:59:00;;;;;;;12.20;5.60;;;;;;;13.30;48.82;104100.09;5032402;28;20498;-87
2022/03/19 10:01:25;;;;;;;13.40;5.93;;;;;;;13.32;48.88;104098.31;5033865;28;20046;-86
2022/03/19 10:03:50;;;;;;;11.80;5.40;;;;;;;13.41;49.03;104088.22;5033856;28;20090;-87
2022/03/19 10:09:01;;;;;;;10.60;5.13;;;;;;;13.56;47.26;104079.63;5033536;28;20131;-87
2022/03/19 10:11:35;;;;;;;15.80;5.03;;;;;;;13.68;47.27;104080.97;5032200;28;20065;-88
2022/03/19 10:14:06;;;;;;;13.88;5.47;;;;;;;13.57;45.97;104068.00;5034126;28;20112;-88
2022/03/19 10:16:35;;;;;;;12.82;4.82;;;;;;;13.58;44.95;104067.09;5032735;28;20116;-86
2022/03/19 10:19:04;;;;;;;10.40;4.75;;;;;;;13.67;44.17;104071.19;5034183;28;20056;-87
2022/03/19 10:21:35;;;;;;;11.02;4.82;;;;;;;13.81;44.70;104068.88;5033678;28;20033;-86
2022/03/19 10:24:01;;;;;;;22.98;4.93;;;;;;;13.80;43.60;104053.78;5032700;28;20033;-87
2022/03/19 10:26:28;;;;;;;11.63;4.25;;;;;;;13.89;43.49;104063.25;5034541;28;20052;-87
2022/03/19 10:29:02;;;;;;;15.50;4.85;;;;;;;13.94;44.01;104047.00;5042866;28;20028;-87
2022/03/19 10:31:31;;;;;;;12.65;4.90;;;;;;;14.02;42.06;104052.91;5028926;28;20496;-88
2022/03/19 10:33:57;;;;;;;11.10;4.15;;;;;;;14.13;41.77;104031.13;5031977;28;20028;-87
2022/03/19 10:36:34;;;;;;;11.07;4.50;;;;;;;14.19;41.64;104042.44;5033227;28;20041;-87
2022/03/19 10:39:04;;;;;;;11.52;4.40;;;;;;;14.34;42.11;104026.66;5031821;28;20117;-86
2022/03/19 10:41:34;;;;;;;8.65;4.45;;;;;;;14.41;40.37;104022.81;5033195;28;20432;-85
2022/03/19 10:44:12;;;;;;;9.35;4.05;;;;;;;14.58;41.02;104028.31;5038779;28;20171;-86
2022/03/19 10:46:38;;;;;;;11.60;4.55;;;;;;;14.59;38.95;104021.22;5040437;28;20041;-86
2022/03/19 10:49:11;;;;;;;8.38;4.07;;;;;;;14.64;39.00;104021.00;5046463;28;20025;-84
2022/03/19 10:51:36;;;;;;;8.57;3.70;;;;;;;14.57;36.41;104009.66;5044014;28;20088;-85
2022/03/19 10:54:03;;;;;;;8.15;3.45;;;;;;;14.60;34.97;104025.59;5035484;28;20476;-86
2022/03/19 10:56:29;;;;;;;11.23;4.03;;;;;;;14.49;33.87;104001.97;5032699;28;20388;-85
2022/03/19 10:59:10;;;;;;;9.25;3.65;;;;;;;14.64;35.47;104003.16;5041462;28;20044;-84
2022/03/19 11:01:36;;;;;;;7.68;3.42;;;;;;;14.59;33.68;104000.66;5041226;28;20029;-86
2022/03/19 11:04:03;;;;;;;9.35;3.63;;;;;;;14.41;32.99;103980.91;5033436;28;20025;-85
2022/03/19 11:06:34;;;;;;;8.90;3.58;;;;;;;14.50;34.25;103982.28;5033007;28;20388;-85
2022/03/19 11:09:05;;;;;;;6.85;3.55;;;;;;;14.57;34.82;103983.78;5032904;28;20036;-86
2022/03/19 11:11:48;;;;;;;11.35;3.92;;;;;;;14.78;35.30;103978.47;5033822;28;20045;-85
2022/03/19 11:14:22;;;;;;;6.75;3.55;;;;;;;14.78;33.15;103967.75;5037675;28;20030;-86
2022/03/19 11:17:23;;;;;;;6.55;3.17;;;;;;;14.90;31.95;103967.19;5031731;28;20041;-85
2022/03/19 11:19:38;;;;;;;7.88;3.25;;;;;;;14.90;31.74;103967.19;5032221;28;20056;-85
2022/03/19 11:22:05;;;;;;;11.05;3.83;;;;;;;14.91;30.54;103952.03;5031643;28;20037;-86
2022/03/19 11:24:36;;;;;;;8.73;3.45;;;;;;;15.07;30.18;103954.84;5029983;28;20707;-85
2022/03/19 11:27:02;;;;;;;7.47;3.08;;;;;;;15.12;29.77;103956.41;5029833;28;20191;-86
2022/03/19 11:29:28;;;;;;;6.93;3.20;;;;;;;15.14;29.76;103946.47;5032072;28;20485;-86